createdAt,value
2023-04-09T00:01:45.144Z,99.90
2023-04-09T00:04:12.610Z,99.90
2023-04-09T00:06:40.061Z,99.90
2023-04-09T00:09:07.440Z,99.90
2023-04-09T00:11:34.985Z,99.90
2023-04-09T00:14:02.367Z,99.90
2023-04-09T00:16:29.823Z,99.90
2023-04-09T00:18:57.438Z,99.90
2023-04-09T00:21:24.812Z,99.90
2023-04-09T00:23:52.155Z,99.90
2023-04-09T00:26:19.576Z,99.90
2023-04-09T00:28:47.082Z,99.90
2023-04-09T00:31:14.489Z,99.90
2023-04-09T00:33:42.099Z,99.90
2023-04-09T00:36:09.522Z,99.90
2023-04-09T00:38:36.903Z,99.90
2023-04-09T00:41:04.555Z,99.90
2023-04-09T00:43:32.015Z,99.90
2023-04-09T00:46:00.841Z,99.90
2023-04-09T00:48:28.744Z,99.90
2023-04-09T00:50:56.331Z,99.90
2023-04-09T00:53:23.909Z,99.90
2023-04-09T00:55:52.346Z,99.90
2023-04-09T00:58:19.766Z,99.90
2023-04-09T01:00:47.177Z,99.90
2023-04-09T01:03:14.919Z,99.90
2023-04-09T01:06:05.859Z,99.90
2023-04-09T01:08:43.766Z,99.90
2023-04-09T01:11:36.520Z,99.90
2023-04-09T01:14:12.483Z,99.90
2023-04-09T01:16:47.799Z,99.90
2023-04-09T01:19:44.013Z,99.90
2023-04-09T01:22:31.303Z,99.90
2023-04-09T01:25:23.270Z,99.90
2023-04-09T01:28:14.722Z,99.90
2023-04-09T01:30:47.395Z,99.90
2023-04-09T01:33:19.657Z,99.90
2023-04-09T01:35:49.474Z,99.90
2023-04-09T01:38:19.680Z,99.90
2023-04-09T01:40:48.737Z,99.90
2023-04-09T01:43:17.219Z,99.90
2023-04-09T01:45:45.659Z,99.90
2023-04-09T01:48:14.910Z,99.90
2023-04-09T01:50:43.187Z,99.90
2023-04-09T01:53:11.084Z,99.90
2023-04-09T01:55:38.593Z,99.90
2023-04-09T01:58:05.998Z,99.90
2023-04-09T02:00:39.873Z,99.90
2023-04-09T02:03:18.159Z,99.90
2023-04-09T02:05:55.660Z,99.90
2023-04-09T02:08:25.279Z,99.90
2023-04-09T02:10:57.993Z,99.90
2023-04-09T02:13:27.239Z,99.90
2023-04-09T02:15:58.560Z,99.90
2023-04-09T02:18:28.665Z,99.90
2023-04-09T02:20:57.588Z,99.90
2023-04-09T02:23:25.980Z,99.90
2023-04-09T02:25:53.831Z,99.90
2023-04-09T02:28:22.084Z,99.90
2023-04-09T02:30:52.257Z,99.90
2023-04-09T02:33:19.664Z,99.90
2023-04-09T02:35:47.080Z,99.90
2023-04-09T02:38:16.028Z,99.90
2023-04-09T02:40:43.637Z,99.90
2023-04-09T02:43:11.307Z,99.90
2023-04-09T02:45:38.903Z,99.90
2023-04-09T02:48:06.439Z,99.90
2023-04-09T02:50:35.964Z,99.90
2023-04-09T02:53:03.755Z,99.90
2023-04-09T02:55:31.314Z,99.90
2023-04-09T02:57:58.727Z,99.90
2023-04-09T03:00:26.108Z,99.90
2023-04-09T03:02:54.985Z,99.90
2023-04-09T03:05:22.436Z,99.90
2023-04-09T03:07:49.863Z,99.90
2023-04-09T03:10:17.302Z,99.90
2023-04-09T03:12:44.812Z,99.90
2023-04-09T03:15:12.256Z,99.90
2023-04-09T03:17:39.861Z,99.90
2023-04-09T03:20:08.286Z,99.90
2023-04-09T03:22:39.943Z,99.90
2023-04-09T03:25:22.985Z,99.90
2023-04-09T03:27:54.245Z,99.90
2023-04-09T03:30:32.205Z,99.90
2023-04-09T03:33:02.170Z,99.90
2023-04-09T03:35:32.444Z,99.90
2023-04-09T03:38:01.228Z,99.90
2023-04-09T03:40:28.664Z,99.90
2023-04-09T03:42:56.024Z,99.90
2023-04-09T03:45:23.503Z,99.90
2023-04-09T03:47:53.029Z,99.90
2023-04-09T03:50:23.864Z,99.90
2023-04-09T03:52:54.802Z,99.90
2023-04-09T03:55:22.690Z,99.90
2023-04-09T03:57:51.251Z,99.90
2023-04-09T04:00:22.492Z,99.90
2023-04-09T04:03:14.735Z,99.90
2023-04-09T04:06:05.365Z,99.90
2023-04-09T04:08:44.717Z,99.90
2023-04-09T04:11:12.699Z,99.90
2023-04-09T04:13:40.934Z,99.90
2023-04-09T04:16:11.000Z,99.90
2023-04-09T04:18:40.444Z,99.90
2023-04-09T04:21:13.524Z,99.90
2023-04-09T04:23:44.502Z,99.90
2023-04-09T04:26:18.400Z,99.90
2023-04-09T04:28:46.645Z,99.90
2023-04-09T04:31:24.692Z,99.90
2023-04-09T04:33:52.952Z,99.90
2023-04-09T04:36:20.352Z,99.90
2023-04-09T04:38:52.732Z,99.90
2023-04-09T04:41:31.933Z,99.90
2023-04-09T04:44:09.783Z,99.90
2023-04-09T04:46:37.643Z,99.90
2023-04-09T04:49:05.574Z,99.90
2023-04-09T04:51:37.122Z,99.90
2023-04-09T04:54:10.484Z,99.90
2023-04-09T04:56:38.668Z,99.90
2023-04-09T04:59:17.171Z,99.90
2023-04-09T05:01:59.354Z,99.90
2023-04-09T05:04:30.593Z,99.90
2023-04-09T05:06:59.197Z,99.90
2023-04-09T05:09:26.962Z,99.90
2023-04-09T05:12:01.700Z,99.90
2023-04-09T05:14:29.112Z,99.90
2023-04-09T05:16:56.641Z,99.90
2023-04-09T05:19:28.753Z,99.90
2023-04-09T05:22:02.424Z,99.90
2023-04-09T05:24:30.227Z,99.90
2023-04-09T05:26:57.673Z,99.90
2023-04-09T05:29:26.022Z,99.90
2023-04-09T05:31:53.421Z,99.90
2023-04-09T05:34:36.451Z,99.90
2023-04-09T05:37:05.174Z,99.90
2023-04-09T05:39:33.850Z,99.90
2023-04-09T05:42:02.192Z,99.90
2023-04-09T05:44:52.192Z,99.90
2023-04-09T05:47:21.468Z,99.90
2023-04-09T05:50:03.449Z,99.90
2023-04-09T05:52:30.993Z,99.90
2023-04-09T05:54:58.528Z,99.90
2023-04-09T05:57:41.776Z,99.90
2023-04-09T06:00:09.897Z,99.90
2023-04-09T06:02:55.214Z,99.90
2023-04-09T06:05:22.724Z,99.90
2023-04-09T06:07:50.160Z,99.90
2023-04-09T06:10:17.748Z,99.90
2023-04-09T06:12:46.229Z,99.90
2023-04-09T06:15:13.747Z,99.90
2023-04-09T06:17:41.247Z,99.90
2023-04-09T06:20:09.158Z,99.90
2023-04-09T06:22:36.878Z,99.90
2023-04-09T06:25:04.435Z,99.90
2023-04-09T06:27:31.867Z,99.90
2023-04-09T06:29:59.212Z,99.90
2023-04-09T06:32:26.700Z,99.90
2023-04-09T06:34:54.050Z,99.90
2023-04-09T06:37:21.532Z,99.90
2023-04-09T06:40:00.445Z,99.90
2023-04-09T06:42:28.905Z,99.90
2023-04-09T06:45:08.607Z,99.90
2023-04-09T06:47:36.432Z,99.90
2023-04-09T06:50:04.270Z,99.90
2023-04-09T06:52:31.717Z,99.90
2023-04-09T06:54:59.104Z,99.90
2023-04-09T06:57:27.233Z,99.90
2023-04-09T06:59:54.644Z,99.90
2023-04-09T07:02:22.326Z,99.90
2023-04-09T07:04:49.960Z,99.90
2023-04-09T07:07:17.796Z,99.90
2023-04-09T07:09:45.396Z,99.90
2023-04-09T07:12:12.803Z,99.90
2023-04-09T07:14:40.274Z,99.90
2023-04-09T07:17:09.538Z,99.90
2023-04-09T07:19:36.900Z,99.90
2023-04-09T07:22:04.267Z,99.90
2023-04-09T07:24:32.579Z,99.90
2023-04-09T07:27:04.002Z,99.90
2023-04-09T07:29:31.405Z,99.90
2023-04-09T07:32:01.196Z,99.90
2023-04-09T07:34:28.937Z,99.90
2023-04-09T07:36:56.337Z,99.90
2023-04-09T07:39:23.718Z,99.90
2023-04-09T07:41:51.416Z,99.90
2023-04-09T07:44:18.891Z,99.90
2023-04-09T07:46:46.702Z,99.90
2023-04-09T07:49:14.496Z,99.90
2023-04-09T07:51:42.191Z,99.90
2023-04-09T07:54:09.871Z,99.90
2023-04-09T07:56:37.528Z,99.90
2023-04-09T07:59:05.326Z,99.90
2023-04-09T08:01:33.129Z,99.90
2023-04-09T08:04:01.019Z,99.90
2023-04-09T08:06:28.910Z,99.90
2023-04-09T08:08:56.456Z,99.90
2023-04-09T08:11:26.004Z,99.90
2023-04-09T08:13:53.823Z,99.90
2023-04-09T08:16:21.593Z,99.90
2023-04-09T08:18:50.007Z,99.90
2023-04-09T08:21:18.395Z,99.90
2023-04-09T08:23:46.438Z,99.90
2023-04-09T08:26:13.926Z,99.90
2023-04-09T08:28:42.101Z,99.90
2023-04-09T08:31:11.098Z,99.90
2023-04-09T08:33:38.841Z,99.90
2023-04-09T08:36:11.512Z,99.90
2023-04-09T08:38:39.169Z,99.90
2023-04-09T08:41:06.912Z,99.90
2023-04-09T08:43:53.164Z,99.90
2023-04-09T08:46:24.882Z,99.90
2023-04-09T08:48:53.368Z,99.90
2023-04-09T08:51:23.240Z,99.90
2023-04-09T08:53:57.133Z,99.90
2023-04-09T08:56:26.166Z,99.90
2023-04-09T08:58:56.575Z,99.90
2023-04-09T09:01:32.444Z,99.90
2023-04-09T09:04:05.592Z,97.90
2023-04-09T09:06:35.697Z,97.30
2023-04-09T09:09:05.499Z,95.30
2023-04-09T09:11:53.672Z,96.10
2023-04-09T09:14:21.229Z,93.50
2023-04-09T09:16:57.871Z,93.10
2023-04-09T09:19:25.604Z,92.20
2023-04-09T09:21:57.408Z,91.50
2023-04-09T09:24:24.909Z,91.70
2023-04-09T09:26:54.504Z,92.20
2023-04-09T09:29:21.907Z,92.70
2023-04-09T09:31:52.297Z,93.50
2023-04-09T09:34:24.796Z,93.60
2023-04-09T09:36:53.309Z,93.50
2023-04-09T09:39:22.213Z,94.80
2023-04-09T09:42:08.090Z,95.20
2023-04-09T09:44:35.849Z,95.60
2023-04-09T09:47:04.898Z,94.30
2023-04-09T09:49:32.434Z,92.80
2023-04-09T09:52:02.970Z,93.00
2023-04-09T09:54:38.842Z,93.00
2023-04-09T09:57:09.912Z,93.30
2023-04-09T09:59:56.040Z,93.00
2023-04-09T10:02:26.978Z,93.20
2023-04-09T10:04:54.781Z,93.60
2023-04-09T10:07:22.799Z,94.20
2023-04-09T10:09:52.002Z,95.80
2023-04-09T10:12:24.498Z,95.70
2023-04-09T10:14:55.258Z,96.20
2023-04-09T10:17:22.903Z,96.80
2023-04-09T10:20:05.455Z,96.60
2023-04-09T10:22:33.712Z,94.60
2023-04-09T10:25:01.398Z,93.20
2023-04-09T10:27:28.844Z,92.10
2023-04-09T10:29:56.305Z,91.40
2023-04-09T10:32:28.474Z,91.80
2023-04-09T10:34:57.263Z,91.20
2023-04-09T10:37:25.923Z,90.30
2023-04-09T10:39:53.996Z,90.10
2023-04-09T10:42:30.325Z,88.10
2023-04-09T10:45:15.396Z,87.90
2023-04-09T10:47:44.011Z,88.60
2023-04-09T10:50:28.055Z,88.80
2023-04-09T10:52:58.214Z,88.10
2023-04-09T10:55:36.503Z,85.40
2023-04-09T10:58:06.217Z,86.60
2023-04-09T11:00:38.264Z,87.90
2023-04-09T11:03:12.139Z,88.20
2023-04-09T11:05:40.887Z,89.60
2023-04-09T11:08:13.264Z,87.90
2023-04-09T11:10:52.137Z,89.00
2023-04-09T11:13:21.261Z,91.20
2023-04-09T11:15:48.713Z,90.60
2023-04-09T11:18:23.762Z,91.00
2023-04-09T11:20:55.414Z,91.20
2023-04-09T11:23:23.792Z,91.20
2023-04-09T11:25:52.257Z,91.40
2023-04-09T11:28:20.639Z,91.90
2023-04-09T11:30:50.267Z,92.90
2023-04-09T11:33:19.800Z,93.60
2023-04-09T11:35:48.599Z,93.60
2023-04-09T11:38:16.497Z,94.40
2023-04-09T11:40:48.664Z,94.20
2023-04-09T11:43:17.676Z,94.20
2023-04-09T11:45:50.244Z,94.20
2023-04-09T11:48:21.882Z,94.50
2023-04-09T11:50:49.798Z,93.90
2023-04-09T11:53:21.855Z,93.70
2023-04-09T11:55:53.675Z,93.40
2023-04-09T11:58:26.288Z,93.00
2023-04-09T12:00:56.253Z,92.80
2023-04-09T12:03:33.616Z,92.50
2023-04-09T12:06:03.777Z,92.70
2023-04-09T12:08:31.859Z,92.10
2023-04-09T12:11:16.997Z,91.80
2023-04-09T12:13:46.454Z,91.80
2023-04-09T12:16:14.759Z,92.30
2023-04-09T12:18:42.519Z,92.10
2023-04-09T12:21:10.063Z,91.50
2023-04-09T12:23:37.470Z,91.60
2023-04-09T12:26:04.999Z,91.90
2023-04-09T12:28:32.436Z,92.30
2023-04-09T12:31:00.018Z,93.00
2023-04-09T12:33:27.454Z,92.90
2023-04-09T12:35:56.124Z,93.00
2023-04-09T12:38:23.607Z,93.30
2023-04-09T12:40:51.170Z,93.70
2023-04-09T12:43:18.521Z,93.80
2023-04-09T12:45:45.903Z,93.30
2023-04-09T12:48:13.310Z,93.10
2023-04-09T12:50:40.774Z,93.80
2023-04-09T12:53:08.898Z,93.80
2023-04-09T12:55:36.275Z,93.90
2023-04-09T12:58:03.765Z,94.50
2023-04-09T13:00:31.375Z,95.10
2023-04-09T13:02:58.997Z,94.40
2023-04-09T13:05:26.647Z,94.20
2023-04-09T13:07:54.066Z,94.20
2023-04-09T13:10:21.450Z,94.40
2023-04-09T13:12:48.943Z,94.00
2023-04-09T13:15:16.604Z,94.70
2023-04-09T13:17:44.064Z,94.30
2023-04-09T13:20:12.145Z,94.50
2023-04-09T13:22:39.608Z,94.40
2023-04-09T13:25:07.331Z,93.40
2023-04-09T13:27:35.571Z,93.70
2023-04-09T13:30:02.991Z,93.40
2023-04-09T13:32:30.677Z,93.90
2023-04-09T13:35:00.473Z,93.80
2023-04-09T13:37:27.922Z,93.90
2023-04-09T13:39:55.935Z,93.90
2023-04-09T13:42:23.343Z,93.60
2023-04-09T13:44:50.741Z,93.30
2023-04-09T13:47:18.178Z,93.70
2023-04-09T13:49:45.885Z,94.20
2023-04-09T13:52:14.147Z,93.60
2023-04-09T13:54:41.640Z,93.90
2023-04-09T13:57:10.317Z,93.70
2023-04-09T13:59:42.465Z,94.10
2023-04-09T14:02:10.312Z,94.20
2023-04-09T14:04:37.943Z,93.90
2023-04-09T14:07:06.227Z,94.00
2023-04-09T14:09:33.695Z,94.10
2023-04-09T14:12:01.926Z,93.60
2023-04-09T14:14:29.378Z,93.50
2023-04-09T14:16:56.984Z,94.00
2023-04-09T14:19:24.400Z,93.60
2023-04-09T14:21:53.340Z,93.70
2023-04-09T14:24:23.083Z,93.60
2023-04-09T14:26:53.469Z,93.90
2023-04-09T14:29:22.153Z,93.40
2023-04-09T14:31:49.866Z,93.50
2023-04-09T14:34:17.380Z,92.90
2023-04-09T14:36:44.785Z,93.10
2023-04-09T14:39:12.205Z,93.60
2023-04-09T14:41:39.822Z,93.10
2023-04-09T14:44:07.645Z,92.90
2023-04-09T14:46:36.749Z,93.80
2023-04-09T14:49:04.165Z,94.30
2023-04-09T14:51:31.691Z,94.70
2023-04-09T14:53:59.523Z,94.20
2023-04-09T14:56:27.251Z,94.70
2023-04-09T14:58:54.880Z,95.20
2023-04-09T15:01:22.730Z,94.70
2023-04-09T15:03:50.647Z,94.60
2023-04-09T15:06:18.318Z,95.00
2023-04-09T15:08:45.884Z,94.40
2023-04-09T15:11:22.643Z,94.70
2023-04-09T15:13:51.318Z,94.90
2023-04-09T15:16:26.019Z,95.10
2023-04-09T15:18:56.361Z,95.20
2023-04-09T15:21:24.162Z,95.90
2023-04-09T15:23:51.828Z,95.90
2023-04-09T15:26:19.604Z,96.20
2023-04-09T15:28:47.050Z,96.30
2023-04-09T15:31:14.715Z,96.20
2023-04-09T15:33:43.886Z,96.30
2023-04-09T15:36:12.066Z,96.10
2023-04-09T15:38:39.683Z,96.00
2023-04-09T15:41:07.177Z,96.40
2023-04-09T15:43:34.752Z,96.60
2023-04-09T15:46:11.704Z,96.70
2023-04-09T15:48:41.769Z,96.50
2023-04-09T15:51:09.556Z,96.50
2023-04-09T15:53:37.882Z,96.20
2023-04-09T15:56:05.950Z,96.10
2023-04-09T15:58:33.356Z,96.50
2023-04-09T16:01:01.535Z,97.00
2023-04-09T16:03:29.340Z,96.60
2023-04-09T16:05:57.022Z,96.70
2023-04-09T16:08:25.846Z,97.20
2023-04-09T16:10:56.403Z,97.00
2023-04-09T16:13:23.896Z,97.30
2023-04-09T16:15:51.415Z,97.00
2023-04-09T16:18:19.169Z,97.30
2023-04-09T16:20:47.174Z,97.00
2023-04-09T16:23:14.953Z,97.30
2023-04-09T16:25:42.463Z,98.20
2023-04-09T16:28:14.510Z,99.40
2023-04-09T16:30:42.181Z,99.90
2023-04-09T16:33:09.942Z,99.90
2023-04-09T16:35:39.619Z,99.90
2023-04-09T16:38:07.826Z,99.90
2023-04-09T16:40:35.387Z,99.90
2023-04-09T16:43:03.231Z,99.90
2023-04-09T16:45:31.685Z,99.90
2023-04-09T16:47:59.457Z,99.90
2023-04-09T16:50:30.408Z,99.90
2023-04-09T16:53:00.124Z,99.90
2023-04-09T16:55:27.602Z,99.90
2023-04-09T16:57:56.785Z,99.90
2023-04-09T17:00:24.653Z,99.90
2023-04-09T17:02:52.419Z,99.90
2023-04-09T17:05:20.361Z,99.90
2023-04-09T17:07:48.523Z,99.90
2023-04-09T17:10:16.193Z,99.90
2023-04-09T17:12:46.383Z,99.90
2023-04-09T17:15:14.313Z,99.90
2023-04-09T17:17:43.642Z,99.90
2023-04-09T17:20:11.735Z,99.90
2023-04-09T17:22:39.352Z,99.90
2023-04-09T17:25:07.272Z,99.90
2023-04-09T17:27:34.751Z,99.90
2023-04-09T17:30:02.885Z,99.90
2023-04-09T17:32:30.951Z,99.90
2023-04-09T17:34:59.639Z,99.90
2023-04-09T17:37:28.855Z,99.90
2023-04-09T17:39:59.589Z,99.90
2023-04-09T17:42:27.102Z,99.90
2023-04-09T17:44:54.610Z,99.90
2023-04-09T17:47:22.264Z,99.90
2023-04-09T17:49:49.895Z,99.90
2023-04-09T17:52:17.425Z,99.90
2023-04-09T17:54:45.615Z,99.90
2023-04-09T17:57:13.236Z,99.90
2023-04-09T17:59:41.076Z,99.90
2023-04-09T18:02:08.950Z,99.90
2023-04-09T18:04:43.315Z,99.90
2023-04-09T18:07:11.176Z,99.90
2023-04-09T18:09:40.473Z,99.90
2023-04-09T18:12:08.444Z,99.90
2023-04-09T18:14:36.396Z,99.90
2023-04-09T18:17:03.899Z,99.90
2023-04-09T18:19:31.552Z,99.90
2023-04-09T18:21:59.162Z,99.90
2023-04-09T18:24:27.910Z,99.90
2023-04-09T18:26:55.381Z,99.90
2023-04-09T18:29:27.509Z,99.90
2023-04-09T18:31:58.937Z,99.90
2023-04-09T18:34:29.655Z,99.90
2023-04-09T18:36:57.343Z,99.90
2023-04-09T18:39:24.861Z,99.90
2023-04-09T18:41:52.342Z,99.90
2023-04-09T18:44:19.953Z,99.90
2023-04-09T18:46:47.449Z,99.90
2023-04-09T18:49:15.482Z,99.90
2023-04-09T18:51:43.139Z,99.90
2023-04-09T18:54:14.577Z,99.90
2023-04-09T18:56:42.636Z,99.90
2023-04-09T18:59:14.388Z,99.90
2023-04-09T19:01:42.339Z,99.90
2023-04-09T19:04:10.516Z,99.90
2023-04-09T19:06:38.422Z,99.90
2023-04-09T19:09:05.944Z,99.90
2023-04-09T19:11:42.693Z,99.90
2023-04-09T19:14:10.565Z,99.90
2023-04-09T19:16:38.432Z,99.90
2023-04-09T19:19:06.393Z,99.90
2023-04-09T19:21:35.317Z,99.90
2023-04-09T19:24:04.888Z,99.90
2023-04-09T19:26:33.807Z,99.90
2023-04-09T19:29:16.313Z,99.90
2023-04-09T19:31:43.941Z,99.90
2023-04-09T19:34:11.494Z,99.90
2023-04-09T19:36:39.350Z,99.90
2023-04-09T19:39:08.527Z,99.90
2023-04-09T19:41:36.134Z,99.90
2023-04-09T19:44:05.298Z,99.90
2023-04-09T19:46:33.465Z,99.90
2023-04-09T19:49:03.284Z,99.90
2023-04-09T19:51:42.948Z,99.90
2023-04-09T19:54:10.961Z,99.90
2023-04-09T19:56:38.429Z,99.90
2023-04-09T19:59:06.171Z,99.90
2023-04-09T20:01:34.060Z,99.90
2023-04-09T20:04:05.126Z,99.90
2023-04-09T20:06:33.319Z,99.90
2023-04-09T20:09:01.523Z,99.90
2023-04-09T20:11:29.381Z,99.90
2023-04-09T20:14:26.594Z,99.90
2023-04-09T20:16:57.982Z,99.90
2023-04-09T20:19:28.463Z,99.90
2023-04-09T20:21:56.205Z,99.90
2023-04-09T20:24:26.353Z,99.90
2023-04-09T20:26:54.687Z,99.90
2023-04-09T20:29:22.568Z,99.90
2023-04-09T20:31:50.115Z,99.90
2023-04-09T20:34:17.768Z,99.90
2023-04-09T20:36:47.688Z,99.90
2023-04-09T20:39:38.856Z,99.90
2023-04-09T20:42:06.520Z,99.90
2023-04-09T20:44:39.510Z,99.90
2023-04-09T20:47:07.636Z,99.90
2023-04-09T20:49:35.341Z,99.90
2023-04-09T20:52:02.948Z,99.90
2023-04-09T20:54:30.908Z,99.90
2023-04-09T20:56:58.636Z,99.90
2023-04-09T20:59:27.709Z,99.90
2023-04-09T21:01:56.066Z,99.90
2023-04-09T21:04:24.532Z,99.90
2023-04-09T21:06:52.564Z,99.90
2023-04-09T21:09:20.787Z,99.90
2023-04-09T21:11:54.521Z,99.90
2023-04-09T21:14:22.385Z,99.90
2023-04-09T21:16:50.354Z,99.90
2023-04-09T21:19:18.254Z,99.90
2023-04-09T21:21:46.323Z,99.90
2023-04-09T21:24:15.351Z,99.90
2023-04-09T21:26:50.152Z,99.90
2023-04-09T21:29:21.802Z,99.90
2023-04-09T21:31:50.022Z,99.90
2023-04-09T21:34:17.792Z,99.90
2023-04-09T21:36:46.322Z,99.90
2023-04-09T21:39:16.977Z,99.90
2023-04-09T21:41:44.591Z,99.90
2023-04-09T21:44:13.440Z,99.90
2023-04-09T21:46:41.829Z,99.90
2023-04-09T21:49:09.540Z,99.90
2023-04-09T21:51:38.397Z,99.90
2023-04-09T21:54:08.326Z,99.90
2023-04-09T21:56:36.836Z,99.90
2023-04-09T21:59:10.379Z,99.90
2023-04-09T22:01:38.090Z,99.90
2023-04-09T22:04:09.378Z,99.90
2023-04-09T22:06:37.274Z,99.90
2023-04-09T22:09:05.287Z,99.90
2023-04-09T22:11:34.581Z,99.90
2023-04-09T22:14:05.478Z,99.90
2023-04-09T22:16:33.119Z,99.90
2023-04-09T22:19:00.727Z,99.90
2023-04-09T22:21:28.684Z,99.90
2023-04-09T22:23:58.550Z,99.90
2023-04-09T22:26:26.641Z,99.90
2023-04-09T22:28:54.317Z,99.90
2023-04-09T22:31:22.953Z,99.90
2023-04-09T22:33:57.559Z,99.90
2023-04-09T22:36:38.789Z,99.90
2023-04-09T22:39:06.239Z,99.90
2023-04-09T22:41:33.700Z,99.90
2023-04-09T22:44:04.595Z,99.90
2023-04-09T22:46:32.794Z,99.90
2023-04-09T22:49:05.512Z,99.90
2023-04-09T22:51:34.767Z,99.90
2023-04-09T22:54:02.842Z,99.90
2023-04-09T22:56:31.815Z,99.90
2023-04-09T22:59:00.053Z,99.90
2023-04-09T23:01:28.255Z,99.90
2023-04-09T23:03:56.352Z,99.90
2023-04-09T23:06:25.734Z,99.90
2023-04-09T23:08:53.541Z,99.90
2023-04-09T23:11:21.317Z,99.90
2023-04-09T23:13:52.042Z,99.90
2023-04-09T23:16:19.685Z,99.90
2023-04-09T23:18:47.569Z,99.90
2023-04-09T23:21:15.635Z,99.90
2023-04-09T23:23:43.169Z,99.90
2023-04-09T23:26:11.131Z,99.90
2023-04-09T23:28:38.756Z,99.90
2023-04-09T23:31:06.619Z,99.90
2023-04-09T23:33:34.563Z,99.90
2023-04-09T23:36:02.076Z,99.90
2023-04-09T23:38:29.577Z,99.90
2023-04-09T23:40:57.137Z,99.90
2023-04-09T23:43:24.564Z,99.90
2023-04-09T23:45:52.258Z,99.90
2023-04-09T23:48:19.790Z,99.90
2023-04-09T23:50:50.467Z,99.90
2023-04-09T23:53:18.097Z,99.90
2023-04-09T23:55:46.968Z,99.90
2023-04-09T23:58:18.011Z,99.90
